Terminal Aerodrome Forecast
Issued by NWS Shreveport, LA

Home | Current Version | Previous Version | Text Only | Print | Product List | Glossary On
Versions: 1 2 3 4 5 6 7 8 9 10 11 12 13 14
000
FTUS44 KSHV 031739
TAFMLU
TAF
KMLU 031739Z 0318/0418 VRB05KT P6SM FEW050
     FM040400 18004KT P6SM SCT250
      TEMPO 0410/0413 2SM BR
     FM041300 18004KT P6SM SKC=

USA.gov is the U.S. government's official web portal to all federal, state and local government web resources and services.